sensor_id;sensor_type;location;lat;lon;timestamp;P1;durP1;ratioP1;P2;durP2;ratioP2
40781;SDS011;26493;51.938;7.626;2022-07-29T00:00:06;16.65;;;12.07;;
40781;SDS011;26493;51.938;7.626;2022-07-29T00:02:33;16.98;;;12.32;;
40781;SDS011;26493;51.938;7.626;2022-07-29T00:04:59;17.17;;;11.88;;
40781;SDS011;26493;51.938;7.626;2022-07-29T00:07:25;18.08;;;12.50;;
40781;SDS011;26493;51.938;7.626;2022-07-29T00:09:51;17.50;;;12.07;;
40781;SDS011;26493;51.938;7.626;2022-07-29T00:12:18;15.80;;;12.25;;
40781;SDS011;26493;51.938;7.626;2022-07-29T00:14:44;19.60;;;12.50;;
40781;SDS011;26493;51.938;7.626;2022-07-29T00:17:10;18.15;;;11.65;;
40781;SDS011;26493;51.938;7.626;2022-07-29T00:19:36;18.10;;;11.60;;
40781;SDS011;26493;51.938;7.626;2022-07-29T00:22:02;18.70;;;12.38;;
40781;SDS011;26493;51.938;7.626;2022-07-29T00:24:28;17.17;;;12.32;;
40781;SDS011;26493;51.938;7.626;2022-07-29T00:26:54;16.60;;;11.90;;
40781;SDS011;26493;51.938;7.626;2022-07-29T00:29:20;15.50;;;11.82;;
40781;SDS011;26493;51.938;7.626;2022-07-29T00:31:46;16.10;;;12.07;;
40781;SDS011;26493;51.938;7.626;2022-07-29T00:34:12;15.88;;;12.00;;
40781;SDS011;26493;51.938;7.626;2022-07-29T00:36:57;17.20;;;12.43;;
40781;SDS011;26493;51.938;7.626;2022-07-29T00:39:23;17.33;;;12.73;;
40781;SDS011;26493;51.938;7.626;2022-07-29T00:41:49;18.15;;;12.93;;
40781;SDS011;26493;51.938;7.626;2022-07-29T00:44:15;17.38;;;12.52;;
40781;SDS011;26493;51.938;7.626;2022-07-29T00:46:41;17.55;;;13.40;;
40781;SDS011;26493;51.938;7.626;2022-07-29T00:49:07;16.90;;;12.13;;
40781;SDS011;26493;51.938;7.626;2022-07-29T00:51:37;18.05;;;12.00;;
40781;SDS011;26493;51.938;7.626;2022-07-29T00:54:03;18.15;;;11.65;;
40781;SDS011;26493;51.938;7.626;2022-07-29T00:56:30;16.65;;;12.30;;
40781;SDS011;26493;51.938;7.626;2022-07-29T00:58:56;16.52;;;12.05;;
40781;SDS011;26493;51.938;7.626;2022-07-29T01:01:23;17.60;;;12.40;;
40781;SDS011;26493;51.938;7.626;2022-07-29T01:03:49;16.52;;;12.32;;
40781;SDS011;26493;51.938;7.626;2022-07-29T01:06:15;17.73;;;12.43;;
40781;SDS011;26493;51.938;7.626;2022-07-29T01:08:42;16.50;;;12.38;;
40781;SDS011;26493;51.938;7.626;2022-07-29T01:11:08;16.50;;;11.90;;
40781;SDS011;26493;51.938;7.626;2022-07-29T01:13:35;17.45;;;12.50;;
40781;SDS011;26493;51.938;7.626;2022-07-29T01:18:47;18.05;;;12.77;;
40781;SDS011;26493;51.938;7.626;2022-07-29T01:34:05;16.60;;;11.75;;
40781;SDS011;26493;51.938;7.626;2022-07-29T01:36:37;18.07;;;12.33;;
40781;SDS011;26493;51.938;7.626;2022-07-29T01:39:08;17.83;;;12.50;;
40781;SDS011;26493;51.938;7.626;2022-07-29T01:41:36;18.48;;;12.05;;
40781;SDS011;26493;51.938;7.626;2022-07-29T01:44:08;17.55;;;12.10;;
40781;SDS011;26493;51.938;7.626;2022-07-29T01:46:37;16.63;;;12.77;;
40781;SDS011;26493;51.938;7.626;2022-07-29T01:49:25;16.90;;;12.05;;
40781;SDS011;26493;51.938;7.626;2022-07-29T01:51:51;16.50;;;12.20;;
40781;SDS011;26493;51.938;7.626;2022-07-29T01:56:48;16.75;;;12.20;;
40781;SDS011;26493;51.938;7.626;2022-07-29T01:59:15;16.48;;;12.30;;
40781;SDS011;26493;51.938;7.626;2022-07-29T02:01:42;20.92;;;12.68;;
40781;SDS011;26493;51.938;7.626;2022-07-29T02:04:09;16.83;;;12.23;;
40781;SDS011;26493;51.938;7.626;2022-07-29T02:06:37;16.85;;;11.95;;
40781;SDS011;26493;51.938;7.626;2022-07-29T02:09:03;17.30;;;11.95;;
40781;SDS011;26493;51.938;7.626;2022-07-29T02:11:31;16.88;;;12.52;;
40781;SDS011;26493;51.938;7.626;2022-07-29T02:13:57;18.47;;;11.83;;
40781;SDS011;26493;51.938;7.626;2022-07-29T02:16:24;19.77;;;12.52;;
40781;SDS011;26493;51.938;7.626;2022-07-29T02:18:52;17.30;;;12.23;;
40781;SDS011;26493;51.938;7.626;2022-07-29T02:21:20;17.63;;;11.70;;
40781;SDS011;26493;51.938;7.626;2022-07-29T02:23:46;18.00;;;12.00;;
40781;SDS011;26493;51.938;7.626;2022-07-29T02:26:14;17.25;;;11.50;;
40781;SDS011;26493;51.938;7.626;2022-07-29T02:28:40;16.02;;;11.75;;
40781;SDS011;26493;51.938;7.626;2022-07-29T02:31:06;16.95;;;11.52;;
40781;SDS011;26493;51.938;7.626;2022-07-29T02:33:33;16.05;;;11.70;;
40781;SDS011;26493;51.938;7.626;2022-07-29T02:35:59;18.63;;;12.40;;
40781;SDS011;26493;51.938;7.626;2022-07-29T02:38:26;16.02;;;11.90;;
40781;SDS011;26493;51.938;7.626;2022-07-29T02:41:12;17.73;;;12.52;;
40781;SDS011;26493;51.938;7.626;2022-07-29T02:43:39;16.05;;;11.90;;
40781;SDS011;26493;51.938;7.626;2022-07-29T02:46:08;16.60;;;12.45;;
40781;SDS011;26493;51.938;7.626;2022-07-29T02:48:37;16.40;;;12.00;;
40781;SDS011;26493;51.938;7.626;2022-07-29T02:51:08;17.40;;;12.20;;
40781;SDS011;26493;51.938;7.626;2022-07-29T02:53:37;17.13;;;12.13;;
40781;SDS011;26493;51.938;7.626;2022-07-29T02:56:06;16.55;;;12.02;;
40781;SDS011;26493;51.938;7.626;2022-07-29T02:58:34;16.05;;;12.35;;
40781;SDS011;26493;51.938;7.626;2022-07-29T03:01:04;16.38;;;12.23;;
40781;SDS011;26493;51.938;7.626;2022-07-29T03:03:34;17.95;;;12.25;;
40781;SDS011;26493;51.938;7.626;2022-07-29T03:06:01;16.67;;;12.15;;
40781;SDS011;26493;51.938;7.626;2022-07-29T03:08:28;15.93;;;12.15;;
40781;SDS011;26493;51.938;7.626;2022-07-29T03:10:54;18.58;;;12.40;;
40781;SDS011;26493;51.938;7.626;2022-07-29T03:13:21;16.73;;;12.40;;
40781;SDS011;26493;51.938;7.626;2022-07-29T03:15:47;18.42;;;12.40;;
40781;SDS011;26493;51.938;7.626;2022-07-29T03:18:13;17.55;;;12.43;;
40781;SDS011;26493;51.938;7.626;2022-07-29T03:20:40;17.42;;;12.27;;
40781;SDS011;26493;51.938;7.626;2022-07-29T03:23:06;16.48;;;12.00;;
40781;SDS011;26493;51.938;7.626;2022-07-29T03:25:33;15.57;;;11.85;;
40781;SDS011;26493;51.938;7.626;2022-07-29T03:27:59;16.52;;;12.20;;
40781;SDS011;26493;51.938;7.626;2022-07-29T03:30:25;15.30;;;11.82;;
40781;SDS011;26493;51.938;7.626;2022-07-29T03:32:51;18.08;;;12.18;;
40781;SDS011;26493;51.938;7.626;2022-07-29T03:35:18;18.38;;;11.80;;
40781;SDS011;26493;51.938;7.626;2022-07-29T03:37:44;16.65;;;11.77;;
40781;SDS011;26493;51.938;7.626;2022-07-29T03:40:11;18.20;;;12.23;;
40781;SDS011;26493;51.938;7.626;2022-07-29T03:45:06;19.33;;;12.70;;
40781;SDS011;26493;51.938;7.626;2022-07-29T03:47:32;16.20;;;12.35;;
40781;SDS011;26493;51.938;7.626;2022-07-29T03:50:00;17.43;;;12.13;;
40781;SDS011;26493;51.938;7.626;2022-07-29T03:52:27;18.10;;;12.65;;
40781;SDS011;26493;51.938;7.626;2022-07-29T03:54:53;16.85;;;12.50;;
40781;SDS011;26493;51.938;7.626;2022-07-29T03:57:20;16.38;;;12.70;;
40781;SDS011;26493;51.938;7.626;2022-07-29T03:59:50;17.17;;;12.90;;
40781;SDS011;26493;51.938;7.626;2022-07-29T04:02:17;17.02;;;12.80;;
40781;SDS011;26493;51.938;7.626;2022-07-29T04:04:43;17.75;;;13.00;;
40781;SDS011;26493;51.938;7.626;2022-07-29T04:07:12;19.50;;;13.25;;
40781;SDS011;26493;51.938;7.626;2022-07-29T04:09:39;17.67;;;13.10;;
40781;SDS011;26493;51.938;7.626;2022-07-29T04:12:05;19.48;;;14.20;;
40781;SDS011;26493;51.938;7.626;2022-07-29T04:14:31;19.00;;;13.02;;
40781;SDS011;26493;51.938;7.626;2022-07-29T04:16:57;16.95;;;12.93;;
40781;SDS011;26493;51.938;7.626;2022-07-29T04:19:23;17.33;;;13.05;;
40781;SDS011;26493;51.938;7.626;2022-07-29T04:21:50;18.45;;;12.88;;
40781;SDS011;26493;51.938;7.626;2022-07-29T04:24:16;17.45;;;13.05;;
40781;SDS011;26493;51.938;7.626;2022-07-29T04:26:42;17.33;;;13.57;;
40781;SDS011;26493;51.938;7.626;2022-07-29T04:29:08;18.17;;;13.27;;
40781;SDS011;26493;51.938;7.626;2022-07-29T04:31:36;18.55;;;13.57;;
40781;SDS011;26493;51.938;7.626;2022-07-29T04:34:02;18.92;;;13.45;;
40781;SDS011;26493;51.938;7.626;2022-07-29T04:36:28;19.73;;;13.57;;
40781;SDS011;26493;51.938;7.626;2022-07-29T04:38:54;18.25;;;13.00;;
40781;SDS011;26493;51.938;7.626;2022-07-29T04:41:20;16.75;;;13.10;;
40781;SDS011;26493;51.938;7.626;2022-07-29T04:43:46;19.95;;;14.02;;
40781;SDS011;26493;51.938;7.626;2022-07-29T04:46:12;21.27;;;13.80;;
40781;SDS011;26493;51.938;7.626;2022-07-29T04:48:38;19.42;;;13.32;;
40781;SDS011;26493;51.938;7.626;2022-07-29T04:51:04;21.38;;;13.63;;
40781;SDS011;26493;51.938;7.626;2022-07-29T04:53:30;18.42;;;13.60;;
40781;SDS011;26493;51.938;7.626;2022-07-29T04:55:56;23.52;;;13.77;;
40781;SDS011;26493;51.938;7.626;2022-07-29T04:58:22;17.38;;;13.10;;
40781;SDS011;26493;51.938;7.626;2022-07-29T05:00:48;20.20;;;13.23;;
40781;SDS011;26493;51.938;7.626;2022-07-29T05:03:15;17.33;;;13.73;;
40781;SDS011;26493;51.938;7.626;2022-07-29T05:05:41;19.15;;;13.15;;
40781;SDS011;26493;51.938;7.626;2022-07-29T05:08:07;18.67;;;13.70;;
40781;SDS011;26493;51.938;7.626;2022-07-29T05:10:33;17.75;;;13.18;;
40781;SDS011;26493;51.938;7.626;2022-07-29T05:13:03;19.30;;;13.20;;
40781;SDS011;26493;51.938;7.626;2022-07-29T05:15:29;19.80;;;13.77;;
40781;SDS011;26493;51.938;7.626;2022-07-29T05:17:55;17.92;;;14.05;;
40781;SDS011;26493;51.938;7.626;2022-07-29T05:20:21;17.45;;;13.20;;
40781;SDS011;26493;51.938;7.626;2022-07-29T05:22:51;18.13;;;13.25;;
40781;SDS011;26493;51.938;7.626;2022-07-29T05:25:18;20.83;;;16.73;;
40781;SDS011;26493;51.938;7.626;2022-07-29T05:27:44;18.63;;;14.25;;
40781;SDS011;26493;51.938;7.626;2022-07-29T05:30:10;20.10;;;14.25;;
40781;SDS011;26493;51.938;7.626;2022-07-29T05:32:36;20.10;;;15.43;;
40781;SDS011;26493;51.938;7.626;2022-07-29T05:35:02;18.83;;;13.75;;
40781;SDS011;26493;51.938;7.626;2022-07-29T05:37:28;22.80;;;14.70;;
40781;SDS011;26493;51.938;7.626;2022-07-29T05:39:54;18.02;;;14.27;;
40781;SDS011;26493;51.938;7.626;2022-07-29T05:42:20;21.08;;;13.60;;
40781;SDS011;26493;51.938;7.626;2022-07-29T05:44:46;18.40;;;13.52;;
40781;SDS011;26493;51.938;7.626;2022-07-29T05:47:12;19.33;;;14.13;;
40781;SDS011;26493;51.938;7.626;2022-07-29T05:49:38;18.33;;;13.32;;
40781;SDS011;26493;51.938;7.626;2022-07-29T05:52:04;16.63;;;13.35;;
40781;SDS011;26493;51.938;7.626;2022-07-29T05:54:30;19.77;;;13.57;;
40781;SDS011;26493;51.938;7.626;2022-07-29T05:56:56;17.90;;;13.48;;
40781;SDS011;26493;51.938;7.626;2022-07-29T05:59:22;17.90;;;13.25;;
40781;SDS011;26493;51.938;7.626;2022-07-29T06:01:48;21.52;;;13.57;;
40781;SDS011;26493;51.938;7.626;2022-07-29T06:04:14;17.17;;;12.85;;
40781;SDS011;26493;51.938;7.626;2022-07-29T06:06:40;19.60;;;13.32;;
40781;SDS011;26493;51.938;7.626;2022-07-29T06:09:06;20.98;;;13.25;;
40781;SDS011;26493;51.938;7.626;2022-07-29T06:11:33;18.27;;;12.57;;
40781;SDS011;26493;51.938;7.626;2022-07-29T06:13:58;17.90;;;13.68;;
40781;SDS011;26493;51.938;7.626;2022-07-29T06:16:24;17.45;;;12.43;;
40781;SDS011;26493;51.938;7.626;2022-07-29T06:18:50;16.40;;;12.45;;
40781;SDS011;26493;51.938;7.626;2022-07-29T06:21:17;21.27;;;13.20;;
40781;SDS011;26493;51.938;7.626;2022-07-29T06:23:43;17.40;;;13.05;;
40781;SDS011;26493;51.938;7.626;2022-07-29T06:26:10;16.48;;;12.93;;
40781;SDS011;26493;51.938;7.626;2022-07-29T06:28:36;20.75;;;13.27;;
40781;SDS011;26493;51.938;7.626;2022-07-29T06:31:02;18.92;;;13.00;;
40781;SDS011;26493;51.938;7.626;2022-07-29T06:33:28;18.75;;;13.35;;
40781;SDS011;26493;51.938;7.626;2022-07-29T06:35:54;16.70;;;13.05;;
40781;SDS011;26493;51.938;7.626;2022-07-29T06:38:20;20.65;;;13.82;;
40781;SDS011;26493;51.938;7.626;2022-07-29T06:40:47;21.52;;;13.43;;
40781;SDS011;26493;51.938;7.626;2022-07-29T06:43:35;18.35;;;13.10;;
40781;SDS011;26493;51.938;7.626;2022-07-29T06:46:06;28.15;;;13.75;;
40781;SDS011;26493;51.938;7.626;2022-07-29T06:48:32;17.10;;;13.05;;
40781;SDS011;26493;51.938;7.626;2022-07-29T06:50:59;18.58;;;13.38;;
40781;SDS011;26493;51.938;7.626;2022-07-29T06:53:25;16.35;;;12.57;;
40781;SDS011;26493;51.938;7.626;2022-07-29T06:55:51;22.70;;;13.90;;
40781;SDS011;26493;51.938;7.626;2022-07-29T06:58:17;16.65;;;12.80;;
40781;SDS011;26493;51.938;7.626;2022-07-29T07:00:45;18.33;;;13.30;;
40781;SDS011;26493;51.938;7.626;2022-07-29T07:03:12;19.13;;;13.52;;
40781;SDS011;26493;51.938;7.626;2022-07-29T07:05:38;17.50;;;12.75;;
40781;SDS011;26493;51.938;7.626;2022-07-29T07:08:04;21.98;;;14.02;;
40781;SDS011;26493;51.938;7.626;2022-07-29T07:10:30;17.45;;;13.45;;
40781;SDS011;26493;51.938;7.626;2022-07-29T07:12:56;17.83;;;13.40;;
40781;SDS011;26493;51.938;7.626;2022-07-29T07:15:22;16.40;;;12.88;;
40781;SDS011;26493;51.938;7.626;2022-07-29T07:17:48;18.30;;;13.23;;
40781;SDS011;26493;51.938;7.626;2022-07-29T07:20:15;22.10;;;13.30;;
40781;SDS011;26493;51.938;7.626;2022-07-29T07:22:41;17.00;;;13.35;;
40781;SDS011;26493;51.938;7.626;2022-07-29T07:25:07;18.90;;;13.55;;
40781;SDS011;26493;51.938;7.626;2022-07-29T07:27:34;20.27;;;13.25;;
40781;SDS011;26493;51.938;7.626;2022-07-29T07:30:00;18.50;;;13.80;;
40781;SDS011;26493;51.938;7.626;2022-07-29T07:32:26;20.10;;;13.13;;
40781;SDS011;26493;51.938;7.626;2022-07-29T07:34:52;22.40;;;13.52;;
40781;SDS011;26493;51.938;7.626;2022-07-29T07:37:18;20.02;;;13.80;;
40781;SDS011;26493;51.938;7.626;2022-07-29T07:39:45;17.98;;;13.52;;
40781;SDS011;26493;51.938;7.626;2022-07-29T07:42:11;20.50;;;13.30;;
40781;SDS011;26493;51.938;7.626;2022-07-29T07:44:38;20.00;;;13.70;;
40781;SDS011;26493;51.938;7.626;2022-07-29T07:47:04;17.90;;;13.80;;
40781;SDS011;26493;51.938;7.626;2022-07-29T07:49:30;23.55;;;14.45;;
40781;SDS011;26493;51.938;7.626;2022-07-29T07:51:56;20.00;;;13.80;;
40781;SDS011;26493;51.938;7.626;2022-07-29T07:54:22;17.95;;;13.40;;
40781;SDS011;26493;51.938;7.626;2022-07-29T07:56:48;17.23;;;13.57;;
40781;SDS011;26493;51.938;7.626;2022-07-29T07:59:15;18.85;;;13.18;;
40781;SDS011;26493;51.938;7.626;2022-07-29T08:01:41;17.98;;;13.43;;
40781;SDS011;26493;51.938;7.626;2022-07-29T08:04:07;17.75;;;13.02;;
40781;SDS011;26493;51.938;7.626;2022-07-29T08:06:33;18.98;;;13.30;;
40781;SDS011;26493;51.938;7.626;2022-07-29T08:09:00;18.65;;;12.70;;
40781;SDS011;26493;51.938;7.626;2022-07-29T08:11:26;18.02;;;13.20;;
40781;SDS011;26493;51.938;7.626;2022-07-29T08:13:54;19.33;;;13.18;;
40781;SDS011;26493;51.938;7.626;2022-07-29T08:16:20;19.88;;;13.18;;
40781;SDS011;26493;51.938;7.626;2022-07-29T08:18:47;19.67;;;13.73;;
40781;SDS011;26493;51.938;7.626;2022-07-29T08:21:14;18.20;;;12.85;;
40781;SDS011;26493;51.938;7.626;2022-07-29T08:23:40;18.38;;;12.70;;
40781;SDS011;26493;51.938;7.626;2022-07-29T08:26:11;19.05;;;12.73;;
40781;SDS011;26493;51.938;7.626;2022-07-29T08:28:37;16.92;;;12.57;;
40781;SDS011;26493;51.938;7.626;2022-07-29T08:31:03;20.60;;;13.00;;
40781;SDS011;26493;51.938;7.626;2022-07-29T08:33:30;17.02;;;12.20;;
40781;SDS011;26493;51.938;7.626;2022-07-29T08:35:56;19.27;;;12.65;;
40781;SDS011;26493;51.938;7.626;2022-07-29T08:38:22;19.17;;;13.52;;
40781;SDS011;26493;51.938;7.626;2022-07-29T08:40:48;23.00;;;13.30;;
40781;SDS011;26493;51.938;7.626;2022-07-29T08:43:15;18.95;;;13.63;;
40781;SDS011;26493;51.938;7.626;2022-07-29T08:45:43;18.25;;;12.93;;
40781;SDS011;26493;51.938;7.626;2022-07-29T08:48:09;20.90;;;13.25;;
40781;SDS011;26493;51.938;7.626;2022-07-29T08:50:36;17.80;;;13.07;;
40781;SDS011;26493;51.938;7.626;2022-07-29T08:53:03;20.45;;;13.30;;
40781;SDS011;26493;51.938;7.626;2022-07-29T08:55:30;19.15;;;13.27;;
40781;SDS011;26493;51.938;7.626;2022-07-29T08:57:57;19.70;;;13.50;;
40781;SDS011;26493;51.938;7.626;2022-07-29T09:00:23;17.02;;;12.60;;
40781;SDS011;26493;51.938;7.626;2022-07-29T09:02:50;20.20;;;14.18;;
40781;SDS011;26493;51.938;7.626;2022-07-29T09:05:18;19.70;;;13.35;;
40781;SDS011;26493;51.938;7.626;2022-07-29T09:07:44;19.48;;;13.38;;
40781;SDS011;26493;51.938;7.626;2022-07-29T09:10:12;19.77;;;13.23;;
40781;SDS011;26493;51.938;7.626;2022-07-29T09:12:39;17.73;;;13.50;;
40781;SDS011;26493;51.938;7.626;2022-07-29T09:15:05;20.40;;;13.95;;
40781;SDS011;26493;51.938;7.626;2022-07-29T09:20:10;22.20;;;16.27;;
40781;SDS011;26493;51.938;7.626;2022-07-29T09:22:36;20.60;;;16.42;;
40781;SDS011;26493;51.938;7.626;2022-07-29T09:25:02;18.75;;;13.85;;
40781;SDS011;26493;51.938;7.626;2022-07-29T09:27:28;18.88;;;14.48;;
40781;SDS011;26493;51.938;7.626;2022-07-29T09:29:55;18.05;;;13.88;;
40781;SDS011;26493;51.938;7.626;2022-07-29T09:32:22;20.17;;;14.00;;
40781;SDS011;26493;51.938;7.626;2022-07-29T09:34:48;21.27;;;14.20;;
40781;SDS011;26493;51.938;7.626;2022-07-29T09:37:25;20.52;;;14.77;;
40781;SDS011;26493;51.938;7.626;2022-07-29T09:39:51;20.00;;;14.18;;
40781;SDS011;26493;51.938;7.626;2022-07-29T09:42:27;19.40;;;15.20;;
40781;SDS011;26493;51.938;7.626;2022-07-29T09:44:53;20.23;;;14.40;;
40781;SDS011;26493;51.938;7.626;2022-07-29T09:47:19;22.65;;;14.18;;
40781;SDS011;26493;51.938;7.626;2022-07-29T09:52:18;17.92;;;13.50;;
40781;SDS011;26493;51.938;7.626;2022-07-29T09:54:45;19.02;;;13.57;;
40781;SDS011;26493;51.938;7.626;2022-07-29T09:57:22;17.98;;;13.35;;
40781;SDS011;26493;51.938;7.626;2022-07-29T09:59:58;19.92;;;13.93;;
40781;SDS011;26493;51.938;7.626;2022-07-29T10:02:31;19.40;;;14.13;;
40781;SDS011;26493;51.938;7.626;2022-07-29T10:04:58;18.95;;;13.98;;
40781;SDS011;26493;51.938;7.626;2022-07-29T10:07:25;18.65;;;13.75;;
40781;SDS011;26493;51.938;7.626;2022-07-29T10:09:57;18.17;;;13.70;;
40781;SDS011;26493;51.938;7.626;2022-07-29T10:12:23;19.85;;;13.35;;
40781;SDS011;26493;51.938;7.626;2022-07-29T10:14:50;19.35;;;14.15;;
40781;SDS011;26493;51.938;7.626;2022-07-29T10:17:16;17.55;;;13.80;;
40781;SDS011;26493;51.938;7.626;2022-07-29T10:19:43;20.27;;;13.93;;
40781;SDS011;26493;51.938;7.626;2022-07-29T10:22:10;18.85;;;13.82;;
40781;SDS011;26493;51.938;7.626;2022-07-29T10:24:37;17.77;;;13.35;;
40781;SDS011;26493;51.938;7.626;2022-07-29T10:27:04;23.63;;;14.30;;
40781;SDS011;26493;51.938;7.626;2022-07-29T10:29:30;20.33;;;14.02;;
40781;SDS011;26493;51.938;7.626;2022-07-29T10:37:17;20.10;;;13.55;;
40781;SDS011;26493;51.938;7.626;2022-07-29T10:42:27;31.38;;;14.15;;
40781;SDS011;26493;51.938;7.626;2022-07-29T10:44:54;17.90;;;13.40;;
40781;SDS011;26493;51.938;7.626;2022-07-29T10:49:59;19.13;;;13.70;;
40781;SDS011;26493;51.938;7.626;2022-07-29T10:58:10;19.23;;;13.80;;
40781;SDS011;26493;51.938;7.626;2022-07-29T11:00:37;21.60;;;13.73;;
40781;SDS011;26493;51.938;7.626;2022-07-29T11:03:03;18.23;;;13.43;;
40781;SDS011;26493;51.938;7.626;2022-07-29T11:05:29;19.00;;;13.20;;
40781;SDS011;26493;51.938;7.626;2022-07-29T11:10:44;20.42;;;13.60;;
40781;SDS011;26493;51.938;7.626;2022-07-29T11:13:10;17.83;;;13.43;;
40781;SDS011;26493;51.938;7.626;2022-07-29T11:15:56;19.38;;;13.88;;
40781;SDS011;26493;51.938;7.626;2022-07-29T11:18:22;22.30;;;13.68;;
40781;SDS011;26493;51.938;7.626;2022-07-29T11:20:49;22.80;;;13.95;;
40781;SDS011;26493;51.938;7.626;2022-07-29T11:39:28;17.50;;;13.15;;
40781;SDS011;26493;51.938;7.626;2022-07-29T11:42:14;17.55;;;13.57;;
40781;SDS011;26493;51.938;7.626;2022-07-29T11:47:30;20.10;;;13.77;;
40781;SDS011;26493;51.938;7.626;2022-07-29T11:49:57;18.85;;;13.70;;
40781;SDS011;26493;51.938;7.626;2022-07-29T11:52:31;20.13;;;14.02;;
40781;SDS011;26493;51.938;7.626;2022-07-29T11:54:58;21.77;;;13.40;;
40781;SDS011;26493;51.938;7.626;2022-07-29T11:57:27;21.05;;;13.55;;
40781;SDS011;26493;51.938;7.626;2022-07-29T11:59:53;20.83;;;13.75;;
40781;SDS011;26493;51.938;7.626;2022-07-29T12:02:21;18.70;;;13.00;;
40781;SDS011;26493;51.938;7.626;2022-07-29T12:07:16;19.30;;;13.73;;
40781;SDS011;26493;51.938;7.626;2022-07-29T12:09:52;20.08;;;13.70;;
40781;SDS011;26493;51.938;7.626;2022-07-29T12:12:18;21.50;;;13.90;;
40781;SDS011;26493;51.938;7.626;2022-07-29T12:14:44;21.15;;;14.52;;
40781;SDS011;26493;51.938;7.626;2022-07-29T12:20:13;18.20;;;12.68;;
40781;SDS011;26493;51.938;7.626;2022-07-29T12:22:47;19.85;;;13.15;;
40781;SDS011;26493;51.938;7.626;2022-07-29T12:25:14;20.52;;;13.10;;
40781;SDS011;26493;51.938;7.626;2022-07-29T12:27:42;23.90;;;13.33;;
40781;SDS011;26493;51.938;7.626;2022-07-29T12:30:09;19.60;;;13.02;;
40781;SDS011;26493;51.938;7.626;2022-07-29T12:32:37;20.10;;;13.15;;
40781;SDS011;26493;51.938;7.626;2022-07-29T12:35:08;20.25;;;12.60;;
40781;SDS011;26493;51.938;7.626;2022-07-29T12:37:34;19.35;;;13.05;;
40781;SDS011;26493;51.938;7.626;2022-07-29T12:40:02;17.77;;;12.80;;
40781;SDS011;26493;51.938;7.626;2022-07-29T12:42:28;21.88;;;12.65;;
40781;SDS011;26493;51.938;7.626;2022-07-29T12:44:55;20.98;;;12.13;;
40781;SDS011;26493;51.938;7.626;2022-07-29T12:47:21;17.55;;;12.32;;
40781;SDS011;26493;51.938;7.626;2022-07-29T12:49:47;19.40;;;13.07;;
40781;SDS011;26493;51.938;7.626;2022-07-29T12:52:26;19.42;;;13.20;;
40781;SDS011;26493;51.938;7.626;2022-07-29T12:54:52;18.58;;;13.15;;
40781;SDS011;26493;51.938;7.626;2022-07-29T12:57:18;18.00;;;13.38;;
40781;SDS011;26493;51.938;7.626;2022-07-29T12:59:44;20.90;;;13.55;;
40781;SDS011;26493;51.938;7.626;2022-07-29T13:02:22;21.48;;;13.75;;
40781;SDS011;26493;51.938;7.626;2022-07-29T13:07:14;20.90;;;13.10;;
40781;SDS011;26493;51.938;7.626;2022-07-29T13:09:49;19.55;;;13.68;;
40781;SDS011;26493;51.938;7.626;2022-07-29T13:12:15;21.77;;;12.75;;
40781;SDS011;26493;51.938;7.626;2022-07-29T13:14:42;20.33;;;13.27;;
40781;SDS011;26493;51.938;7.626;2022-07-29T13:22:10;18.10;;;13.18;;
40781;SDS011;26493;51.938;7.626;2022-07-29T13:24:53;21.05;;;14.20;;
40781;SDS011;26493;51.938;7.626;2022-07-29T13:27:20;19.67;;;14.57;;
40781;SDS011;26493;51.938;7.626;2022-07-29T13:29:46;21.63;;;14.52;;
40781;SDS011;26493;51.938;7.626;2022-07-29T13:32:13;23.40;;;14.82;;
40781;SDS011;26493;51.938;7.626;2022-07-29T13:34:39;20.05;;;14.23;;
40781;SDS011;26493;51.938;7.626;2022-07-29T13:37:05;19.45;;;14.73;;
40781;SDS011;26493;51.938;7.626;2022-07-29T13:39:32;19.45;;;14.43;;
40781;SDS011;26493;51.938;7.626;2022-07-29T13:41:58;22.02;;;14.30;;
40781;SDS011;26493;51.938;7.626;2022-07-29T13:44:24;18.80;;;14.65;;
40781;SDS011;26493;51.938;7.626;2022-07-29T13:46:50;23.52;;;15.15;;
40781;SDS011;26493;51.938;7.626;2022-07-29T13:49:16;18.52;;;14.75;;
40781;SDS011;26493;51.938;7.626;2022-07-29T13:51:42;18.73;;;14.68;;
40781;SDS011;26493;51.938;7.626;2022-07-29T13:54:08;20.30;;;15.48;;
40781;SDS011;26493;51.938;7.626;2022-07-29T13:56:34;19.20;;;14.85;;
40781;SDS011;26493;51.938;7.626;2022-07-29T13:59:00;18.67;;;14.68;;
40781;SDS011;26493;51.938;7.626;2022-07-29T14:01:26;20.60;;;15.02;;
40781;SDS011;26493;51.938;7.626;2022-07-29T14:03:52;19.42;;;14.88;;
40781;SDS011;26493;51.938;7.626;2022-07-29T14:06:18;19.00;;;15.25;;
40781;SDS011;26493;51.938;7.626;2022-07-29T14:08:44;19.45;;;15.88;;
40781;SDS011;26493;51.938;7.626;2022-07-29T14:11:10;21.50;;;16.58;;
40781;SDS011;26493;51.938;7.626;2022-07-29T14:13:37;19.38;;;15.90;;
40781;SDS011;26493;51.938;7.626;2022-07-29T14:16:03;18.77;;;15.60;;
40781;SDS011;26493;51.938;7.626;2022-07-29T14:18:29;18.80;;;15.35;;
40781;SDS011;26493;51.938;7.626;2022-07-29T14:20:56;27.02;;;24.15;;
40781;SDS011;26493;51.938;7.626;2022-07-29T14:23:22;20.60;;;16.00;;
40781;SDS011;26493;51.938;7.626;2022-07-29T14:25:48;18.35;;;15.70;;
40781;SDS011;26493;51.938;7.626;2022-07-29T14:28:14;19.45;;;17.35;;
40781;SDS011;26493;51.938;7.626;2022-07-29T14:30:40;19.48;;;15.80;;
40781;SDS011;26493;51.938;7.626;2022-07-29T14:33:06;20.60;;;16.20;;
40781;SDS011;26493;51.938;7.626;2022-07-29T14:35:33;20.67;;;15.18;;
40781;SDS011;26493;51.938;7.626;2022-07-29T14:37:59;19.95;;;15.40;;
40781;SDS011;26493;51.938;7.626;2022-07-29T14:40:25;20.13;;;15.27;;
40781;SDS011;26493;51.938;7.626;2022-07-29T14:42:51;26.83;;;15.90;;
40781;SDS011;26493;51.938;7.626;2022-07-29T14:45:17;19.27;;;15.52;;
40781;SDS011;26493;51.938;7.626;2022-07-29T14:47:43;20.83;;;15.88;;
40781;SDS011;26493;51.938;7.626;2022-07-29T14:50:09;19.10;;;15.02;;
40781;SDS011;26493;51.938;7.626;2022-07-29T14:52:36;24.85;;;21.17;;
40781;SDS011;26493;51.938;7.626;2022-07-29T14:55:02;19.60;;;14.85;;
40781;SDS011;26493;51.938;7.626;2022-07-29T14:57:29;20.38;;;18.20;;
40781;SDS011;26493;51.938;7.626;2022-07-29T14:59:55;22.23;;;15.48;;
40781;SDS011;26493;51.938;7.626;2022-07-29T15:02:21;23.67;;;15.32;;
40781;SDS011;26493;51.938;7.626;2022-07-29T15:04:47;20.50;;;16.30;;
40781;SDS011;26493;51.938;7.626;2022-07-29T15:07:14;18.45;;;15.73;;
40781;SDS011;26493;51.938;7.626;2022-07-29T15:09:40;20.75;;;16.27;;
40781;SDS011;26493;51.938;7.626;2022-07-29T15:12:07;19.10;;;15.60;;
40781;SDS011;26493;51.938;7.626;2022-07-29T15:14:35;19.33;;;15.88;;
40781;SDS011;26493;51.938;7.626;2022-07-29T15:17:01;21.17;;;15.30;;
40781;SDS011;26493;51.938;7.626;2022-07-29T15:19:27;19.63;;;15.15;;
40781;SDS011;26493;51.938;7.626;2022-07-29T15:21:53;18.23;;;15.80;;
40781;SDS011;26493;51.938;7.626;2022-07-29T15:24:19;21.80;;;15.00;;
40781;SDS011;26493;51.938;7.626;2022-07-29T15:26:46;22.48;;;15.90;;
40781;SDS011;26493;51.938;7.626;2022-07-29T15:29:12;30.25;;;27.08;;
40781;SDS011;26493;51.938;7.626;2022-07-29T15:31:38;20.73;;;16.80;;
40781;SDS011;26493;51.938;7.626;2022-07-29T15:34:04;19.70;;;14.93;;
40781;SDS011;26493;51.938;7.626;2022-07-29T15:36:30;22.70;;;15.40;;